createdAt,value
2023-05-12T00:01:56.602Z,99895.41
2023-05-12T00:04:58.669Z,99890.91
2023-05-12T00:08:00.670Z,99895.41
2023-05-12T00:11:02.928Z,99897.50
2023-05-12T00:14:04.927Z,99903.69
2023-05-12T00:17:07.087Z,99902.13
2023-05-12T00:20:09.727Z,99909.53
2023-05-12T00:23:12.249Z,99904.47
2023-05-12T00:26:14.140Z,99903.91
2023-05-12T00:29:18.687Z,99913.91
2023-05-12T00:32:20.706Z,99923.06
2023-05-12T00:35:22.826Z,99914.84
2023-05-12T00:38:24.596Z,99914.59
2023-05-12T00:41:26.442Z,99915.75
2023-05-12T00:44:28.353Z,99914.09
2023-05-12T00:47:30.629Z,99914.94
2023-05-12T00:50:32.688Z,99919.44
2023-05-12T00:53:47.844Z,99912.97
2023-05-12T00:56:51.754Z,99917.47
2023-05-12T00:59:55.943Z,99913.09
2023-05-12T01:02:58.667Z,99916.91
2023-05-12T01:06:17.802Z,99911.00
2023-05-12T01:09:20.119Z,99914.53
2023-05-12T01:12:23.466Z,99922.38
2023-05-12T01:15:25.372Z,99918.56
2023-05-12T01:18:27.729Z,99918.22
2023-05-12T01:21:30.086Z,99919.88
2023-05-12T01:24:36.131Z,99916.88
2023-05-12T01:27:40.480Z,99916.44
2023-05-12T01:30:44.067Z,99916.00
2023-05-12T01:33:48.145Z,99913.28
2023-05-12T01:36:50.177Z,99920.31
2023-05-12T01:39:53.819Z,99917.91
2023-05-12T01:42:56.239Z,99930.56
2023-05-12T01:45:58.701Z,99926.09
2023-05-12T01:49:00.634Z,99924.56
2023-05-12T01:52:02.588Z,99927.25
2023-05-12T01:55:07.251Z,99920.34
2023-05-12T01:58:15.069Z,99913.00
2023-05-12T02:01:18.010Z,99919.72
2023-05-12T02:04:19.935Z,99922.91
2023-05-12T02:07:23.259Z,99921.34
2023-05-12T02:10:25.474Z,99918.25
2023-05-12T02:13:27.362Z,99916.34
2023-05-12T02:16:29.398Z,99916.88
2023-05-12T02:19:31.266Z,99917.72
2023-05-12T02:22:34.411Z,99922.22
2023-05-12T02:25:36.283Z,99922.47
2023-05-12T02:28:38.872Z,99928.84
2023-05-12T02:31:41.136Z,99925.06
2023-05-12T02:34:51.779Z,99929.88
2023-05-12T02:37:53.786Z,99929.38
2023-05-12T02:40:55.790Z,99927.28
2023-05-12T02:43:59.061Z,99929.56
2023-05-12T02:47:01.260Z,99924.53
2023-05-12T02:50:04.422Z,99924.72
2023-05-12T02:53:07.189Z,99920.44
2023-05-12T02:56:09.114Z,99927.91
2023-05-12T02:59:10.928Z,99925.41
2023-05-12T03:02:13.124Z,99927.88
2023-05-12T03:05:15.409Z,99924.25
2023-05-12T03:08:17.242Z,99932.16
2023-05-12T03:11:19.098Z,99930.09
2023-05-12T03:14:21.472Z,99934.22
2023-05-12T03:17:23.675Z,99927.94
2023-05-12T03:20:25.771Z,99929.25
2023-05-12T03:23:27.761Z,99940.25
2023-05-12T03:26:30.648Z,99942.06
2023-05-12T03:29:32.562Z,99937.84
2023-05-12T03:32:34.474Z,99947.38
2023-05-12T03:35:36.433Z,99948.19
2023-05-12T03:38:38.759Z,99940.38
2023-05-12T03:41:40.848Z,99944.91
2023-05-12T03:44:43.911Z,99952.94
2023-05-12T03:47:45.970Z,99947.25
2023-05-12T03:50:48.081Z,99953.41
2023-05-12T03:53:50.040Z,99950.31
2023-05-12T03:56:53.205Z,99963.16
2023-05-12T03:59:55.270Z,99956.31
2023-05-12T04:02:57.288Z,99954.81
2023-05-12T04:06:00.519Z,99951.47
2023-05-12T04:09:02.341Z,99958.34
2023-05-12T04:12:04.514Z,99971.34
2023-05-12T04:15:06.910Z,99954.22
2023-05-12T04:18:10.037Z,99959.13
2023-05-12T04:21:14.531Z,99945.59
2023-05-12T04:24:16.701Z,99949.19
2023-05-12T04:27:18.811Z,99956.09
2023-05-12T04:30:21.184Z,99951.66
2023-05-12T04:33:24.654Z,99955.34
2023-05-12T04:36:27.096Z,99954.75
2023-05-12T04:39:29.590Z,99961.63
2023-05-12T04:42:32.395Z,99964.47
2023-05-12T04:45:34.811Z,99961.72
2023-05-12T04:48:41.990Z,99955.22
2023-05-12T04:51:44.649Z,99956.78
2023-05-12T04:54:46.646Z,99959.75
2023-05-12T04:57:48.654Z,99969.44
2023-05-12T05:00:50.820Z,99967.06
2023-05-12T05:03:52.954Z,99974.63
2023-05-12T05:06:55.758Z,99965.72
2023-05-12T05:09:58.381Z,99970.53
2023-05-12T05:13:01.286Z,99968.19
2023-05-12T05:16:03.534Z,99969.63
2023-05-12T05:19:15.937Z,99969.09
2023-05-12T05:22:26.377Z,99967.31
2023-05-12T05:25:28.705Z,99962.75
2023-05-12T05:28:31.274Z,99965.31
2023-05-12T05:31:33.323Z,99969.19
2023-05-12T05:34:35.343Z,99965.88
2023-05-12T05:37:37.509Z,99965.47
2023-05-12T05:40:52.362Z,99964.69
2023-05-12T05:43:56.277Z,99970.75
2023-05-12T05:46:58.829Z,99963.63
2023-05-12T05:50:04.301Z,99969.72
2023-05-12T05:53:08.569Z,99971.59
2023-05-12T05:56:10.591Z,99964.22
2023-05-12T05:59:14.439Z,99956.44
2023-05-12T06:02:16.708Z,99956.59
2023-05-12T06:05:18.992Z,99961.03
2023-05-12T06:08:21.237Z,99959.31
2023-05-12T06:11:23.127Z,99965.31
2023-05-12T06:14:24.931Z,99962.69
2023-05-12T06:17:26.873Z,99964.88
2023-05-12T06:20:28.869Z,99960.16
2023-05-12T06:23:30.918Z,99949.91
2023-05-12T06:26:32.864Z,99961.38
2023-05-12T06:29:35.073Z,99952.09
2023-05-12T06:32:37.111Z,99956.59
2023-05-12T06:35:40.493Z,99959.03
2023-05-12T06:38:42.409Z,99957.50
2023-05-12T06:41:44.236Z,99962.28
2023-05-12T06:44:55.205Z,99964.69
2023-05-12T06:47:57.965Z,99961.47
2023-05-12T06:51:02.564Z,99960.00
2023-05-12T06:54:07.340Z,99961.44
2023-05-12T06:57:09.925Z,99957.34
2023-05-12T07:00:13.069Z,99959.75
2023-05-12T07:03:15.071Z,99958.59
2023-05-12T07:06:17.042Z,99957.53
2023-05-12T07:09:18.924Z,99950.84
2023-05-12T07:12:20.805Z,99955.63
2023-05-12T07:15:23.092Z,99957.94
2023-05-12T07:18:25.203Z,99964.81
2023-05-12T07:21:27.257Z,99950.88
2023-05-12T07:24:29.136Z,99958.50
2023-05-12T07:27:31.801Z,99964.91
2023-05-12T07:30:33.659Z,99957.91
2023-05-12T07:33:36.320Z,99962.38
2023-05-12T07:36:38.247Z,99963.34
2023-05-12T07:39:40.435Z,99963.09
2023-05-12T07:42:42.301Z,99971.50
2023-05-12T07:45:45.294Z,99956.25
2023-05-12T07:48:47.156Z,99960.50
2023-05-12T07:51:49.389Z,99956.25
2023-05-12T07:54:51.115Z,99950.69
2023-05-12T07:57:52.952Z,99955.91
2023-05-12T08:00:54.856Z,99959.47
2023-05-12T08:03:57.227Z,99964.81
2023-05-12T08:06:59.188Z,99951.38
2023-05-12T08:10:01.270Z,99952.13
2023-05-12T08:13:03.189Z,99941.31
2023-05-12T08:16:05.213Z,99946.06
2023-05-12T08:19:07.179Z,99952.31
2023-05-12T08:22:09.104Z,99948.81
2023-05-12T08:25:12.546Z,99947.34
2023-05-12T08:28:15.172Z,99940.97
2023-05-12T08:31:17.013Z,99937.34
2023-05-12T08:34:18.989Z,99927.97
2023-05-12T08:37:21.025Z,99937.72
2023-05-12T08:40:25.084Z,99924.03
2023-05-12T08:43:38.064Z,99933.44
2023-05-12T08:46:40.937Z,99934.84
2023-05-12T08:49:44.249Z,99933.72
2023-05-12T08:52:46.350Z,99942.06
2023-05-12T08:57:08.124Z,99946.97
2023-05-12T08:59:10.545Z,99945.78
2023-05-12T09:02:14.463Z,99943.25
2023-05-12T09:05:16.456Z,99950.06
2023-05-12T09:08:18.527Z,99948.16
2023-05-12T09:11:22.054Z,99941.69
2023-05-12T09:14:29.703Z,99942.78
2023-05-12T09:17:31.551Z,99946.56
2023-05-12T09:20:33.975Z,99948.63
2023-05-12T09:23:35.920Z,99958.19
2023-05-12T09:26:53.984Z,99945.34
2023-05-12T09:29:59.546Z,99953.91
2023-05-12T09:33:09.643Z,99955.31
2023-05-12T09:36:12.316Z,99954.19
2023-05-12T09:39:14.327Z,99965.78
2023-05-12T09:42:16.280Z,99966.44
2023-05-12T09:45:19.855Z,99962.09
2023-05-12T09:48:22.347Z,99972.59
2023-05-12T09:51:24.594Z,99975.66
2023-05-12T09:54:30.187Z,99968.31
2023-05-12T09:57:34.242Z,99963.19
2023-05-12T10:01:05.977Z,99956.81
2023-05-12T10:04:01.861Z,99948.34
2023-05-12T10:07:03.682Z,99948.88
2023-05-12T10:10:08.106Z,99950.53
2023-05-12T10:13:14.259Z,99941.84
2023-05-12T10:16:16.501Z,99943.53
2023-05-12T10:19:19.030Z,99944.06
2023-05-12T10:22:21.953Z,99953.03
2023-05-12T10:25:23.850Z,99946.72
2023-05-12T10:28:25.760Z,99945.22
2023-05-12T10:31:28.305Z,99950.81
2023-05-12T10:34:34.965Z,99947.22
2023-05-12T10:37:39.727Z,99931.69
2023-05-12T10:41:01.152Z,99928.72
2023-05-12T10:44:03.111Z,99931.13
2023-05-12T10:47:16.277Z,99935.78
2023-05-12T10:50:28.502Z,99935.34
2023-05-12T10:53:47.828Z,99934.78
2023-05-12T10:56:53.431Z,99929.94
2023-05-12T11:00:01.448Z,99931.13
2023-05-12T11:03:13.195Z,99929.41
2023-05-12T11:06:19.708Z,99931.44
2023-05-12T11:09:22.201Z,99927.16
2023-05-12T11:12:26.826Z,99926.28
2023-05-12T11:15:30.222Z,99922.69
2023-05-12T11:18:32.044Z,99918.50
2023-05-12T11:21:35.615Z,99918.44
2023-05-12T11:24:42.497Z,99919.22
2023-05-12T11:27:50.933Z,99918.34
2023-05-12T11:30:55.260Z,99918.81
2023-05-12T11:34:11.998Z,99915.16
2023-05-12T11:37:14.792Z,99919.63
2023-05-12T11:40:18.824Z,99901.84
2023-05-12T11:43:22.606Z,99912.22
2023-05-12T11:46:26.569Z,99911.88
2023-05-12T11:49:30.162Z,99916.19
2023-05-12T11:52:32.314Z,99898.91
2023-05-12T11:55:34.262Z,99903.38
2023-05-12T11:58:36.140Z,99913.41
2023-05-12T12:01:46.778Z,99922.41
2023-05-12T12:04:48.703Z,99911.81
2023-05-12T12:07:50.517Z,99915.88
2023-05-12T12:10:52.513Z,99925.03
2023-05-12T12:13:58.301Z,99919.09
2023-05-12T12:17:00.424Z,99922.75
2023-05-12T12:20:02.263Z,99916.50
2023-05-12T12:23:04.205Z,99925.34
2023-05-12T12:26:06.175Z,99915.66
2023-05-12T12:29:08.031Z,99923.25
2023-05-12T12:32:09.829Z,99923.97
2023-05-12T12:35:13.179Z,99912.63
2023-05-12T12:38:14.968Z,99914.00
2023-05-12T12:41:17.019Z,99915.13
2023-05-12T12:44:18.963Z,99904.09
2023-05-12T12:47:20.782Z,99902.94
2023-05-12T12:50:24.995Z,99901.50
2023-05-12T12:53:27.737Z,99908.81
2023-05-12T12:56:30.096Z,99905.66
2023-05-12T12:59:32.283Z,99898.84
2023-05-12T13:02:34.811Z,99890.66
2023-05-12T13:05:36.971Z,99886.25
2023-05-12T13:08:38.738Z,99887.53
2023-05-12T13:11:40.709Z,99886.97
2023-05-12T13:14:42.633Z,99885.44
2023-05-12T13:17:46.604Z,99882.50
2023-05-12T13:20:48.552Z,99884.91
2023-05-12T13:23:50.382Z,99878.34
2023-05-12T13:26:52.358Z,99890.53
2023-05-12T13:29:54.258Z,99860.28
2023-05-12T13:32:56.280Z,99881.78
2023-05-12T13:35:59.093Z,99894.34
2023-05-12T13:39:01.926Z,99900.50
2023-05-12T13:42:04.606Z,99895.16
2023-05-12T13:45:07.086Z,99902.19
2023-05-12T13:48:09.246Z,99887.66
2023-05-12T13:51:11.091Z,99892.75
2023-05-12T13:54:13.014Z,99896.59
2023-05-12T13:57:14.857Z,99886.50
2023-05-12T14:00:17.412Z,99889.72
2023-05-12T14:03:19.281Z,99896.88
2023-05-12T14:06:21.090Z,99890.09
2023-05-12T14:09:23.434Z,99886.25
2023-05-12T14:12:25.898Z,99884.28
2023-05-12T14:15:40.483Z,99889.59
2023-05-12T14:18:49.675Z,99883.50
2023-05-12T14:21:51.560Z,99888.88
2023-05-12T14:24:53.928Z,99878.78
2023-05-12T14:27:56.309Z,99881.28
2023-05-12T14:30:58.361Z,99879.66
2023-05-12T14:34:00.364Z,99880.06
2023-05-12T14:37:02.430Z,99879.06
2023-05-12T14:40:05.443Z,99876.91
2023-05-12T14:43:07.303Z,99874.75
2023-05-12T14:46:09.337Z,99882.38
2023-05-12T14:49:13.986Z,99880.41
2023-05-12T14:52:16.024Z,99871.88
2023-05-12T14:55:18.057Z,99875.75
2023-05-12T14:58:21.966Z,99878.63
2023-05-12T15:01:23.895Z,99874.34
2023-05-12T15:04:27.270Z,99871.75
2023-05-12T15:07:29.213Z,99870.78
2023-05-12T15:10:31.835Z,99875.53
2023-05-12T15:13:33.730Z,99870.78
2023-05-12T15:16:35.980Z,99868.63
2023-05-12T15:19:37.727Z,99864.81
2023-05-12T15:22:39.609Z,99864.81
2023-05-12T15:25:41.849Z,99861.81
2023-05-12T15:28:43.628Z,99869.97
2023-05-12T15:31:45.560Z,99869.53
2023-05-12T15:34:47.539Z,99875.34
2023-05-12T15:37:49.428Z,99870.53
2023-05-12T15:40:51.886Z,99871.16
2023-05-12T15:43:53.747Z,99880.53
2023-05-12T15:46:55.846Z,99879.22
2023-05-12T15:49:57.753Z,99880.56
2023-05-12T15:52:59.649Z,99875.84
2023-05-12T15:56:02.757Z,99882.47
2023-05-12T15:59:05.397Z,99878.78
2023-05-12T16:02:07.842Z,99883.06
2023-05-12T16:05:10.069Z,99879.78
2023-05-12T16:08:12.020Z,99885.09
2023-05-12T16:11:14.124Z,99883.47
2023-05-12T16:14:16.221Z,99888.50
2023-05-12T16:17:18.094Z,99888.97
2023-05-12T16:20:19.997Z,99879.81
2023-05-12T16:23:21.875Z,99890.53
2023-05-12T16:26:23.981Z,99890.78
2023-05-12T16:29:26.272Z,99898.56
2023-05-12T16:32:28.159Z,99891.88
2023-05-12T16:35:30.087Z,99897.75
2023-05-12T16:38:32.472Z,99896.50
2023-05-12T16:41:34.325Z,99899.44
2023-05-12T16:44:36.201Z,99895.03
2023-05-12T16:47:38.439Z,99901.91
2023-05-12T16:50:40.294Z,99906.50
2023-05-12T16:53:42.687Z,99906.22
2023-05-12T16:56:44.452Z,99907.63
2023-05-12T16:59:48.241Z,99910.50
2023-05-12T17:02:50.601Z,99912.31
2023-05-12T17:05:52.895Z,99914.53
2023-05-12T17:08:54.847Z,99921.09
2023-05-12T17:11:56.730Z,99922.81
2023-05-12T17:15:06.826Z,99922.09
2023-05-12T17:18:09.307Z,99926.38
2023-05-12T17:21:11.669Z,99920.19
2023-05-12T17:24:14.566Z,99924.22
2023-05-12T17:27:16.517Z,99934.47
2023-05-12T17:30:18.792Z,99936.16
2023-05-12T17:33:20.671Z,99935.34
2023-05-12T17:36:22.624Z,99941.84
2023-05-12T17:39:24.521Z,99949.13
2023-05-12T17:42:31.397Z,99940.19
2023-05-12T17:45:33.741Z,99947.47
2023-05-12T17:48:35.931Z,99948.50
2023-05-12T17:51:37.957Z,99956.78
2023-05-12T17:54:39.872Z,99956.09
2023-05-12T17:57:42.078Z,99959.41
2023-05-12T18:00:43.916Z,99960.03
2023-05-12T18:03:46.046Z,99949.00
2023-05-12T18:06:50.253Z,99958.72
2023-05-12T18:09:52.070Z,99958.75
2023-05-12T18:12:55.430Z,99960.03
2023-05-12T18:15:57.431Z,99956.88
2023-05-12T18:18:59.415Z,99964.53
2023-05-12T18:22:01.402Z,99963.53
2023-05-12T18:25:03.317Z,99959.19
2023-05-12T18:28:06.760Z,99967.66
2023-05-12T18:31:15.916Z,99968.53
2023-05-12T18:34:18.459Z,99966.06
2023-05-12T18:37:20.321Z,99967.94
2023-05-12T18:40:22.275Z,99962.75
2023-05-12T18:43:24.166Z,99976.22
2023-05-12T18:46:27.403Z,99976.25
2023-05-12T18:49:30.679Z,99984.34
2023-05-12T18:52:32.514Z,99976.94
2023-05-12T18:55:34.387Z,99977.78
2023-05-12T18:58:36.305Z,99983.69
2023-05-12T19:01:38.316Z,99975.28
2023-05-12T19:04:40.223Z,99972.41
2023-05-12T19:07:42.026Z,99986.38
2023-05-12T19:10:43.996Z,99980.66
2023-05-12T19:13:47.328Z,99981.13
2023-05-12T19:16:49.321Z,99976.25
2023-05-12T19:19:51.292Z,99975.91
2023-05-12T19:22:53.229Z,99981.97
2023-05-12T19:25:55.182Z,99978.25
2023-05-12T19:28:57.131Z,99969.84
2023-05-12T19:31:58.946Z,99972.53
2023-05-12T19:35:01.106Z,99977.72
2023-05-12T19:38:02.930Z,99978.38
2023-05-12T19:41:04.784Z,99971.81
2023-05-12T19:44:06.742Z,99976.84
2023-05-12T19:47:09.410Z,99973.66
2023-05-12T19:50:11.521Z,99975.16
2023-05-12T19:53:13.483Z,99965.22
2023-05-12T19:56:15.499Z,99969.38
2023-05-12T19:59:18.723Z,99970.19
2023-05-12T20:02:20.906Z,99968.00
2023-05-12T20:05:23.045Z,99973.84
2023-05-12T20:08:24.947Z,99968.28
2023-05-12T20:11:27.403Z,99972.31
2023-05-12T20:14:29.259Z,99976.47
2023-05-12T20:17:31.210Z,99975.94
2023-05-12T20:20:33.057Z,99975.75
2023-05-12T20:23:34.982Z,99978.91
2023-05-12T20:26:36.967Z,99980.06
2023-05-12T20:29:38.764Z,99974.16
2023-05-12T20:32:40.723Z,99968.41
2023-05-12T20:35:42.647Z,99974.09
2023-05-12T20:38:44.520Z,99979.78
2023-05-12T20:41:46.681Z,99983.63
2023-05-12T20:44:48.730Z,99985.78
2023-05-12T20:47:50.614Z,99985.28
2023-05-12T20:50:53.112Z,99980.06
2023-05-12T20:53:55.207Z,99975.16
2023-05-12T20:56:57.240Z,99983.69
2023-05-12T20:59:59.102Z,99978.63
2023-05-12T21:03:02.968Z,99979.94
2023-05-12T21:06:05.613Z,99984.31
2023-05-12T21:09:07.432Z,99989.31
2023-05-12T21:12:09.608Z,99986.09
2023-05-12T21:15:11.861Z,99978.66
2023-05-12T21:18:13.727Z,99981.50
2023-05-12T21:21:16.063Z,99981.81
2023-05-12T21:24:18.006Z,99979.44
2023-05-12T21:27:19.809Z,99985.28
2023-05-12T21:30:21.821Z,99983.06
2023-05-12T21:33:23.863Z,99978.00
2023-05-12T21:36:25.772Z,99978.47
2023-05-12T21:39:28.024Z,99977.25
2023-05-12T21:42:30.117Z,99985.44
2023-05-12T21:45:32.103Z,99986.91
2023-05-12T21:48:34.547Z,99985.22
2023-05-12T21:51:36.411Z,99992.72
2023-05-12T21:54:38.350Z,99998.53
2023-05-12T21:57:40.459Z,99988.13
2023-05-12T22:00:42.289Z,99993.78
2023-05-12T22:03:44.423Z,99991.41
2023-05-12T22:06:46.467Z,99983.66
2023-05-12T22:09:48.497Z,99987.50
2023-05-12T22:12:50.344Z,99991.63
2023-05-12T22:15:52.232Z,99987.56
2023-05-12T22:18:54.196Z,99986.03
2023-05-12T22:21:57.136Z,99991.84
2023-05-12T22:24:58.857Z,99982.75
2023-05-12T22:28:00.792Z,99988.25
2023-05-12T22:31:02.742Z,99988.56
2023-05-12T22:34:04.548Z,99991.38
2023-05-12T22:37:06.453Z,99983.78
2023-05-12T22:40:09.020Z,99983.09
2023-05-12T22:43:12.746Z,99985.22
2023-05-12T22:46:14.583Z,99982.69
2023-05-12T22:49:16.439Z,99983.81
2023-05-12T22:52:18.314Z,99986.38
2023-05-12T22:55:20.255Z,99985.53
2023-05-12T22:58:22.182Z,99994.69
2023-05-12T23:01:24.051Z,99988.78
2023-05-12T23:04:26.154Z,99983.72
2023-05-12T23:07:28.026Z,99982.88
2023-05-12T23:10:29.967Z,99990.06
2023-05-12T23:13:31.885Z,99975.13
2023-05-12T23:16:33.804Z,99986.97
2023-05-12T23:19:37.055Z,99979.25
2023-05-12T23:22:38.898Z,99987.44
2023-05-12T23:25:42.226Z,99983.34
2023-05-12T23:28:44.087Z,99987.88
2023-05-12T23:31:46.139Z,99990.00
2023-05-12T23:34:48.020Z,99986.63
2023-05-12T23:37:49.838Z,99989.75
2023-05-12T23:40:51.651Z,99985.38
2023-05-12T23:43:53.507Z,99984.53
2023-05-12T23:46:55.498Z,99984.69
2023-05-12T23:49:57.323Z,99981.31
2023-05-12T23:52:59.174Z,99987.50
2023-05-12T23:56:02.058Z,99982.44
2023-05-12T23:59:03.964Z,99982.72
